createdAt,value
2019-02-20T00:01:20.093Z,18.33
2019-02-20T00:03:49.370Z,15.10
2019-02-20T00:06:18.579Z,17.70
2019-02-20T00:08:47.985Z,13.33
2019-02-20T00:11:17.385Z,16.20
2019-02-20T00:13:46.536Z,17.33
2019-02-20T00:16:15.700Z,19.17
2019-02-20T00:18:44.899Z,17.43
2019-02-20T00:21:14.152Z,14.83
2019-02-20T00:23:45.135Z,19.50
2019-02-20T00:26:14.272Z,13.10
2019-02-20T00:28:43.548Z,16.60
2019-02-20T00:31:12.837Z,19.67
2019-02-20T00:33:42.105Z,14.63
2019-02-20T00:36:11.300Z,18.53
2019-02-20T00:38:40.564Z,18.90
2019-02-20T00:41:09.775Z,17.30
2019-02-20T00:43:40.882Z,18.40
2019-02-20T00:46:19.331Z,21.43
2019-02-20T00:48:55.839Z,15.70
2019-02-20T00:51:53.067Z,15.57
2019-02-20T00:54:22.281Z,16.30
2019-02-20T00:56:51.651Z,14.13
2019-02-20T00:59:20.929Z,23.37
2019-02-20T01:01:50.131Z,15.47
2019-02-20T01:04:19.680Z,15.63
2019-02-20T01:06:48.916Z,15.93
2019-02-20T01:09:21.195Z,18.93
2019-02-20T01:11:50.471Z,16.40
2019-02-20T01:14:19.639Z,18.30
2019-02-20T01:16:48.837Z,21.33
2019-02-20T01:19:21.045Z,19.10
2019-02-20T01:21:50.323Z,21.37
2019-02-20T01:24:21.737Z,25.40
2019-02-20T01:26:50.541Z,21.13
2019-02-20T01:29:19.764Z,21.83
2019-02-20T01:31:50.500Z,21.73
2019-02-20T01:34:19.679Z,22.43
2019-02-20T01:36:48.941Z,22.03
2019-02-20T01:39:18.116Z,22.80
2019-02-20T01:41:47.383Z,25.17
2019-02-20T01:44:16.551Z,20.00
2019-02-20T01:46:45.752Z,18.03
2019-02-20T01:49:16.709Z,26.80
2019-02-20T01:51:45.854Z,25.57
2019-02-20T01:54:15.036Z,20.23
2019-02-20T01:56:44.280Z,19.57
2019-02-20T01:59:13.438Z,17.90
2019-02-20T02:01:42.629Z,21.70
2019-02-20T02:04:11.815Z,21.83
2019-02-20T02:06:41.063Z,17.73
2019-02-20T02:09:10.213Z,20.50
2019-02-20T02:11:39.385Z,16.40
2019-02-20T02:14:08.541Z,16.17
2019-02-20T02:16:37.826Z,20.73
2019-02-20T02:19:07.175Z,18.57
2019-02-20T02:21:37.693Z,15.90
2019-02-20T02:24:06.937Z,16.87
2019-02-20T02:26:36.124Z,21.33
2019-02-20T02:29:05.777Z,17.30
2019-02-20T02:31:34.927Z,18.10
2019-02-20T02:34:04.149Z,18.20
2019-02-20T02:36:33.513Z,16.30
2019-02-20T02:39:03.273Z,17.80
2019-02-20T02:41:33.640Z,20.30
2019-02-20T02:44:02.889Z,22.23
2019-02-20T02:46:32.141Z,17.77
2019-02-20T02:49:01.398Z,19.10
2019-02-20T02:51:30.541Z,22.00
2019-02-20T02:53:59.698Z,19.87
2019-02-20T02:56:28.918Z,14.40
2019-02-20T02:58:58.130Z,16.73
2019-02-20T03:01:27.309Z,18.30
2019-02-20T03:03:57.632Z,14.63
2019-02-20T03:06:26.871Z,17.13
2019-02-20T03:08:56.162Z,18.03
2019-02-20T03:11:25.368Z,23.10
2019-02-20T03:13:55.134Z,20.43
2019-02-20T03:16:24.332Z,16.40
2019-02-20T03:18:53.479Z,17.33
2019-02-20T03:21:22.810Z,16.70
2019-02-20T03:23:52.035Z,17.73
2019-02-20T03:26:21.385Z,22.13
2019-02-20T03:28:50.562Z,24.20
2019-02-20T03:31:19.706Z,19.93
2019-02-20T03:33:48.894Z,22.27
2019-02-20T03:36:18.046Z,18.73
2019-02-20T03:38:47.257Z,16.43
2019-02-20T03:41:16.444Z,23.33
2019-02-20T03:43:45.604Z,18.00
2019-02-20T03:46:14.795Z,21.77
2019-02-20T03:48:44.131Z,19.13
2019-02-20T03:51:13.370Z,18.37
2019-02-20T03:53:51.118Z,18.17
2019-02-20T03:56:13.425Z,22.90
2019-02-20T03:58:42.727Z,17.20
2019-02-20T04:01:11.934Z,25.33
2019-02-20T04:03:41.080Z,22.50
2019-02-20T04:06:10.241Z,17.27
2019-02-20T04:08:39.448Z,18.43
2019-02-20T04:11:08.797Z,18.20
2019-02-20T04:13:38.037Z,18.47
2019-02-20T04:16:07.231Z,25.10
2019-02-20T04:18:39.273Z,23.87
2019-02-20T04:21:08.399Z,25.00
2019-02-20T04:23:37.600Z,21.93
2019-02-20T04:26:06.753Z,19.97
2019-02-20T04:28:36.029Z,20.20
2019-02-20T04:31:05.332Z,24.77
2019-02-20T04:33:34.496Z,19.73
2019-02-20T04:36:03.642Z,19.93
2019-02-20T04:38:32.892Z,20.77
2019-02-20T04:41:02.139Z,22.50
2019-02-20T04:43:31.425Z,24.50
2019-02-20T04:46:02.166Z,18.93
2019-02-20T04:48:31.313Z,20.63
2019-02-20T04:51:00.511Z,20.90
2019-02-20T04:53:29.679Z,19.70
2019-02-20T04:55:58.813Z,20.40
2019-02-20T04:58:28.018Z,20.30
2019-02-20T05:00:57.157Z,18.33
2019-02-20T05:03:26.315Z,33.00
2019-02-20T05:05:55.449Z,21.97
2019-02-20T05:08:24.612Z,17.47
2019-02-20T05:10:53.891Z,22.67
2019-02-20T05:13:23.106Z,27.33
2019-02-20T05:15:52.362Z,20.30
2019-02-20T05:18:21.636Z,20.17
2019-02-20T05:20:50.809Z,19.20
2019-02-20T05:23:20.066Z,23.73
2019-02-20T05:25:49.266Z,23.90
2019-02-20T05:28:18.449Z,21.47
2019-02-20T05:30:47.704Z,21.80
2019-02-20T05:33:16.952Z,27.07
2019-02-20T05:35:46.230Z,23.43
2019-02-20T05:38:15.343Z,20.83
2019-02-20T05:40:44.531Z,20.87
2019-02-20T05:45:36.173Z,18.43
2019-02-20T05:48:05.313Z,19.37
2019-02-20T05:50:34.455Z,20.35
2019-02-20T05:53:03.607Z,18.40
2019-02-20T05:55:32.757Z,15.10
2019-02-20T05:58:01.929Z,19.43
2019-02-20T06:00:31.205Z,22.57
2019-02-20T06:03:00.402Z,18.97
2019-02-20T06:05:29.727Z,18.97
2019-02-20T06:07:58.933Z,18.50
2019-02-20T06:10:28.104Z,21.30
2019-02-20T06:12:57.385Z,26.00
2019-02-20T06:15:26.646Z,17.87
2019-02-20T06:17:55.815Z,18.40
2019-02-20T06:20:25.084Z,24.57
2019-02-20T06:22:54.337Z,20.57
2019-02-20T06:25:23.474Z,17.13
2019-02-20T06:27:54.229Z,16.33
2019-02-20T06:30:23.405Z,19.00
2019-02-20T06:32:52.641Z,19.00
2019-02-20T06:35:21.935Z,18.33
2019-02-20T06:37:51.120Z,21.07
2019-02-20T06:40:20.325Z,25.97
2019-02-20T06:42:49.471Z,23.63
2019-02-20T06:45:18.749Z,21.13
2019-02-20T06:47:47.951Z,27.23
2019-02-20T06:50:17.224Z,22.50
2019-02-20T06:52:46.375Z,25.70
2019-02-20T06:55:15.640Z,26.83
2019-02-20T06:57:44.902Z,22.87
2019-02-20T07:00:14.283Z,31.60
2019-02-20T07:02:43.528Z,23.10
2019-02-20T07:05:33.578Z,19.93
2019-02-20T07:09:02.307Z,26.10
2019-02-20T07:12:02.751Z,22.10
2019-02-20T07:15:09.091Z,19.23
2019-02-20T07:18:27.375Z,26.53
2019-02-20T07:21:37.220Z,21.30
2019-02-20T07:24:30.109Z,23.60
2019-02-20T07:27:46.249Z,17.80
2019-02-20T07:30:15.417Z,23.13
2019-02-20T07:32:44.653Z,25.80
2019-02-20T07:35:13.821Z,21.57
2019-02-20T07:37:43.068Z,24.37
2019-02-20T07:40:13.495Z,18.00
2019-02-20T07:42:42.842Z,20.80
2019-02-20T07:45:15.377Z,22.63
2019-02-20T07:47:44.532Z,26.50
2019-02-20T07:50:19.823Z,27.70
2019-02-20T07:52:49.851Z,28.63
2019-02-20T07:55:19.001Z,25.60
2019-02-20T07:57:48.182Z,24.50
2019-02-20T08:00:17.503Z,23.90
2019-02-20T08:02:46.827Z,28.80
2019-02-20T08:05:19.044Z,23.10
2019-02-20T08:07:48.363Z,30.20
2019-02-20T08:10:17.824Z,26.53
2019-02-20T08:12:46.973Z,29.77
2019-02-20T08:15:16.227Z,30.00
2019-02-20T08:17:45.535Z,27.77
2019-02-20T08:20:14.910Z,23.63
2019-02-20T08:22:44.151Z,22.33
2019-02-20T08:25:22.249Z,24.83
2019-02-20T08:27:44.311Z,28.20
2019-02-20T08:30:15.449Z,30.27
2019-02-20T08:32:44.751Z,22.80
2019-02-20T08:35:14.350Z,31.57
2019-02-20T08:37:43.500Z,26.87
2019-02-20T08:40:14.537Z,22.70
2019-02-20T08:42:43.727Z,26.57
2019-02-20T08:45:13.261Z,25.27
2019-02-20T08:47:42.560Z,27.47
2019-02-20T08:50:12.592Z,23.33
2019-02-20T08:52:41.847Z,22.17
2019-02-20T08:55:11.065Z,26.53
2019-02-20T08:57:40.353Z,29.23
2019-02-20T09:00:12.028Z,23.93
2019-02-20T09:02:41.342Z,31.30
2019-02-20T09:05:10.689Z,42.70
2019-02-20T09:07:40.002Z,35.13
2019-02-20T09:10:11.040Z,28.03
2019-02-20T09:12:40.278Z,25.73
2019-02-20T09:15:10.086Z,23.73
2019-02-20T09:17:39.322Z,28.47
2019-02-20T09:20:09.419Z,26.00
2019-02-20T09:22:39.605Z,26.10
2019-02-20T09:25:09.767Z,27.03
2019-02-20T09:27:39.047Z,24.87
2019-02-20T09:30:10.836Z,34.60
2019-02-20T09:32:40.273Z,24.80
2019-02-20T09:35:09.730Z,22.93
2019-02-20T09:37:38.941Z,27.40
2019-02-20T09:40:10.696Z,30.20
2019-02-20T09:42:41.159Z,29.10
2019-02-20T09:45:10.324Z,29.20
2019-02-20T09:47:39.612Z,23.20
2019-02-20T09:50:09.251Z,33.80
2019-02-20T09:52:38.516Z,22.43
2019-02-20T09:55:08.897Z,29.10
2019-02-20T09:57:38.129Z,27.67
2019-02-20T10:00:10.746Z,25.87
2019-02-20T10:02:40.009Z,26.20
2019-02-20T10:05:09.733Z,22.70
2019-02-20T10:07:39.012Z,21.13
2019-02-20T10:10:08.784Z,20.60
2019-02-20T10:12:38.102Z,24.43
2019-02-20T10:15:09.076Z,24.47
2019-02-20T10:17:38.212Z,23.27
2019-02-20T10:20:09.896Z,29.90
2019-02-20T10:22:39.116Z,26.97
2019-02-20T10:25:10.249Z,27.97
2019-02-20T10:27:39.558Z,25.30
2019-02-20T10:30:12.133Z,25.77
2019-02-20T10:32:41.304Z,25.93
2019-02-20T10:35:10.784Z,30.00
2019-02-20T10:37:40.035Z,26.67
2019-02-20T10:40:09.739Z,28.63
2019-02-20T10:42:38.917Z,29.20
2019-02-20T10:45:08.545Z,31.87
2019-02-20T10:47:37.821Z,29.53
2019-02-20T10:50:07.374Z,32.60
2019-02-20T10:52:36.636Z,30.33
2019-02-20T10:55:06.439Z,25.37
2019-02-20T10:57:37.161Z,29.83
2019-02-20T11:00:23.362Z,24.87
2019-02-20T11:02:44.941Z,25.27
2019-02-20T11:05:14.172Z,27.37
2019-02-20T11:07:43.471Z,28.43
2019-02-20T11:10:12.753Z,25.00
2019-02-20T11:12:42.014Z,29.20
2019-02-20T11:15:13.013Z,23.87
2019-02-20T11:17:42.182Z,19.90
2019-02-20T11:20:11.477Z,25.63
2019-02-20T11:22:40.725Z,21.53
2019-02-20T11:25:10.436Z,23.13
2019-02-20T11:27:39.799Z,26.03
2019-02-20T11:30:11.671Z,23.67
2019-02-20T11:32:40.841Z,22.33
2019-02-20T11:35:10.041Z,26.33
2019-02-20T11:37:39.259Z,13.30
2019-02-20T11:40:09.235Z,16.50
2019-02-20T11:42:38.428Z,13.07
2019-02-20T11:45:08.193Z,16.27
2019-02-20T11:47:37.390Z,15.70
2019-02-20T11:50:07.919Z,12.87
2019-02-20T11:52:38.583Z,13.80
2019-02-20T11:55:08.337Z,12.27
2019-02-20T11:57:38.753Z,16.17
2019-02-20T12:00:09.323Z,14.33
2019-02-20T12:02:38.633Z,13.00
2019-02-20T12:05:08.188Z,13.30
2019-02-20T12:07:38.731Z,9.83
2019-02-20T12:10:08.733Z,12.00
2019-02-20T12:12:37.996Z,10.27
2019-02-20T12:15:07.539Z,9.80
2019-02-20T12:17:37.155Z,10.07
2019-02-20T12:20:06.380Z,13.83
2019-02-20T12:22:35.786Z,11.87
2019-02-20T12:25:05.336Z,10.50
2019-02-20T12:27:34.597Z,11.73
2019-02-20T12:30:04.571Z,10.83
2019-02-20T12:32:33.796Z,13.53
2019-02-20T12:35:03.105Z,12.87
2019-02-20T12:37:32.436Z,13.23
2019-02-20T12:40:01.711Z,12.30
2019-02-20T12:42:32.015Z,11.90
2019-02-20T12:45:01.188Z,11.13
2019-02-20T12:47:30.467Z,15.13
2019-02-20T12:49:59.662Z,11.80
2019-02-20T12:52:29.060Z,11.70
2019-02-20T12:54:58.372Z,10.93
2019-02-20T12:57:27.539Z,10.80
2019-02-20T12:59:56.894Z,8.13
2019-02-20T13:02:26.072Z,9.47
2019-02-20T13:04:55.586Z,10.83
2019-02-20T13:07:25.139Z,12.10
2019-02-20T13:09:54.452Z,8.20
2019-02-20T13:12:23.716Z,10.77
2019-02-20T13:14:53.020Z,9.87
2019-02-20T13:17:22.276Z,10.43
2019-02-20T13:19:51.491Z,8.57
2019-02-20T13:22:20.751Z,8.40
2019-02-20T13:24:49.886Z,8.50
2019-02-20T13:27:22.890Z,9.40
2019-02-20T13:29:50.138Z,10.77
2019-02-20T13:32:19.381Z,7.50
2019-02-20T13:34:48.713Z,9.50
2019-02-20T13:37:17.945Z,12.10
2019-02-20T13:39:47.198Z,9.00
2019-02-20T13:42:16.758Z,9.23
2019-02-20T13:44:46.056Z,9.30
2019-02-20T13:47:15.325Z,12.60
2019-02-20T13:49:44.453Z,7.13
2019-02-20T13:52:13.830Z,7.63
2019-02-20T13:54:43.050Z,7.70
2019-02-20T13:57:12.376Z,8.70
2019-02-20T13:59:43.176Z,7.70
2019-02-20T14:02:12.456Z,9.00
2019-02-20T14:04:41.657Z,15.53
2019-02-20T14:07:11.097Z,9.60
2019-02-20T14:09:40.520Z,9.37
2019-02-20T14:12:09.751Z,10.03
2019-02-20T14:14:39.287Z,8.27
2019-02-20T14:17:08.577Z,17.07
2019-02-20T14:19:37.889Z,11.97
2019-02-20T14:22:07.839Z,8.50
2019-02-20T14:24:37.374Z,9.53
2019-02-20T14:27:10.677Z,7.40
2019-02-20T14:29:37.798Z,13.20
2019-02-20T14:32:07.118Z,10.13
2019-02-20T14:34:36.351Z,9.50
2019-02-20T14:37:05.581Z,10.37
2019-02-20T14:39:34.793Z,10.50
2019-02-20T14:42:04.015Z,11.33
2019-02-20T14:44:33.548Z,11.60
2019-02-20T14:47:02.781Z,8.83
2019-02-20T14:49:32.198Z,8.90
2019-02-20T14:52:01.353Z,8.00
2019-02-20T14:54:30.840Z,11.57
2019-02-20T14:57:00.164Z,11.97
2019-02-20T14:59:29.461Z,10.63
2019-02-20T15:01:58.675Z,13.80
2019-02-20T15:04:27.977Z,11.80
2019-02-20T15:06:57.251Z,16.23
2019-02-20T15:09:26.719Z,13.07
2019-02-20T15:11:56.066Z,11.67
2019-02-20T15:14:26.377Z,11.43
2019-02-20T15:16:55.752Z,10.57
2019-02-20T15:19:24.997Z,13.53
2019-02-20T15:21:54.468Z,14.00
2019-02-20T15:24:23.782Z,11.00
2019-02-20T15:26:52.939Z,10.87
2019-02-20T15:29:22.110Z,11.10
2019-02-20T15:31:51.644Z,11.93
2019-02-20T15:34:20.954Z,14.97
2019-02-20T15:36:50.189Z,12.30
2019-02-20T15:39:21.288Z,13.27
2019-02-20T15:41:50.588Z,11.60
2019-02-20T15:44:20.835Z,13.30
2019-02-20T15:46:50.474Z,13.73
2019-02-20T15:49:21.173Z,16.30
2019-02-20T15:51:50.463Z,11.40
2019-02-20T15:54:19.749Z,23.70
2019-02-20T15:56:49.133Z,18.40
2019-02-20T15:59:18.332Z,14.03
2019-02-20T16:04:11.195Z,13.90
2019-02-20T16:06:40.559Z,11.87
2019-02-20T16:09:10.384Z,12.03
2019-02-20T16:11:39.736Z,13.53
2019-02-20T16:14:09.009Z,15.93
2019-02-20T16:16:38.284Z,14.27
2019-02-20T16:19:09.241Z,15.37
2019-02-20T16:21:38.469Z,14.97
2019-02-20T16:24:07.815Z,15.40
2019-02-20T16:26:37.009Z,16.60
2019-02-20T16:29:06.290Z,18.13
2019-02-20T16:31:35.584Z,17.03
2019-02-20T16:34:05.141Z,13.03
2019-02-20T16:36:34.424Z,17.03
2019-02-20T16:39:05.031Z,21.33
2019-02-20T16:41:35.614Z,17.77
2019-02-20T16:44:04.984Z,14.90
2019-02-20T16:46:34.271Z,13.57
2019-02-20T16:49:04.892Z,12.73
2019-02-20T16:51:34.285Z,12.93
2019-02-20T16:54:04.925Z,11.90
2019-02-20T16:56:34.286Z,13.30
2019-02-20T16:59:05.097Z,12.23
2019-02-20T17:01:34.664Z,12.73
2019-02-20T17:04:04.239Z,12.73
2019-02-20T17:06:33.443Z,14.87
2019-02-20T17:09:03.056Z,13.13
2019-02-20T17:11:33.407Z,15.50
2019-02-20T17:14:02.934Z,14.60
2019-02-20T17:16:32.208Z,20.13
2019-02-20T17:19:01.762Z,20.10
2019-02-20T17:21:31.254Z,19.77
2019-02-20T17:24:00.520Z,14.63
2019-02-20T17:26:29.706Z,22.33
2019-02-20T17:28:59.011Z,19.73
2019-02-20T17:31:28.313Z,19.77
2019-02-20T17:33:58.056Z,17.27
2019-02-20T17:36:27.449Z,20.37
2019-02-20T17:38:56.685Z,18.73
2019-02-20T17:41:27.402Z,16.77
2019-02-20T17:43:56.679Z,17.90
2019-02-20T17:46:26.217Z,18.70
2019-02-20T17:48:55.855Z,22.03
2019-02-20T17:51:25.129Z,24.40
2019-02-20T17:53:54.365Z,19.03
2019-02-20T17:56:23.701Z,18.53
2019-02-20T17:58:53.878Z,23.00
2019-02-20T18:01:25.100Z,22.97
2019-02-20T18:03:54.326Z,17.95
2019-02-20T18:06:24.097Z,15.23
2019-02-20T18:08:53.392Z,12.50
2019-02-20T18:11:22.759Z,16.93
2019-02-20T18:13:51.924Z,26.83
2019-02-20T18:16:21.219Z,18.73
2019-02-20T18:18:50.460Z,18.93
2019-02-20T18:21:19.714Z,23.77
2019-02-20T18:23:49.113Z,21.83
2019-02-20T18:26:18.406Z,24.10
2019-02-20T18:28:47.742Z,19.80
2019-02-20T18:31:17.039Z,18.33
2019-02-20T18:33:46.389Z,16.70
2019-02-20T18:36:15.668Z,19.20
2019-02-20T18:38:44.962Z,21.33
2019-02-20T18:41:14.696Z,24.93
2019-02-20T18:43:44.150Z,26.03
2019-02-20T18:46:13.502Z,19.70
2019-02-20T18:48:42.705Z,20.10
2019-02-20T18:51:12.093Z,21.17
2019-02-20T18:53:41.469Z,21.27
2019-02-20T18:56:11.045Z,17.97
2019-02-20T18:58:40.290Z,24.87
2019-02-20T19:01:09.579Z,17.50
2019-02-20T19:03:38.850Z,23.10
2019-02-20T19:06:08.350Z,18.20
2019-02-20T19:08:43.347Z,20.23
2019-02-20T19:11:26.430Z,21.60
2019-02-20T19:14:36.490Z,20.57
2019-02-20T19:17:53.167Z,24.40
2019-02-20T19:21:10.819Z,20.80
2019-02-20T19:24:08.547Z,24.87
2019-02-20T19:26:46.723Z,23.47
2019-02-20T19:29:58.337Z,24.43
2019-02-20T19:33:26.870Z,22.30
2019-02-20T19:36:13.362Z,22.83
2019-02-20T19:39:29.145Z,21.03
2019-02-20T19:42:36.985Z,23.30
2019-02-20T19:45:53.522Z,29.10
2019-02-20T19:49:16.264Z,20.03
2019-02-20T19:52:38.956Z,18.33
2019-02-20T19:55:34.162Z,24.13
2019-02-20T19:59:09.062Z,23.80
2019-02-20T20:02:28.333Z,21.23
2019-02-20T20:05:24.689Z,23.53
2019-02-20T20:08:26.117Z,29.20
2019-02-20T20:11:11.415Z,22.93
2019-02-20T20:13:57.914Z,22.10
2019-02-20T20:17:05.955Z,28.90
2019-02-20T20:20:11.899Z,25.53
2019-02-20T20:23:12.025Z,20.90
2019-02-20T20:26:18.183Z,20.10
2019-02-20T20:29:27.349Z,19.07
2019-02-20T20:32:37.398Z,20.10
2019-02-20T20:35:53.746Z,21.80
2019-02-20T20:38:54.687Z,29.37
2019-02-20T20:42:07.525Z,26.60
2019-02-20T20:45:05.724Z,21.50
2019-02-20T20:48:12.141Z,21.73
2019-02-20T20:51:17.788Z,23.03
2019-02-20T20:54:55.582Z,20.27
2019-02-20T20:57:35.576Z,18.87
2019-02-20T21:00:35.464Z,25.70
2019-02-20T21:03:08.819Z,21.27
2019-02-20T21:06:13.568Z,23.20
2019-02-20T21:09:15.894Z,23.63
2019-02-20T21:12:19.609Z,21.40
2019-02-20T21:15:08.410Z,26.63
2019-02-20T21:18:04.050Z,23.53
2019-02-20T21:21:03.120Z,31.83
2019-02-20T21:24:12.249Z,28.93
2019-02-20T21:27:33.675Z,24.23
2019-02-20T21:30:38.148Z,29.23
2019-02-20T21:33:57.580Z,30.87
2019-02-20T21:36:37.743Z,22.43
2019-02-20T21:39:37.598Z,21.10
2019-02-20T21:42:17.222Z,20.90
2019-02-20T21:45:24.684Z,26.43
2019-02-20T21:48:05.688Z,21.83
2019-02-20T21:51:13.188Z,18.53
2019-02-20T21:54:11.258Z,22.33
2019-02-20T21:57:11.882Z,22.67
2019-02-20T22:00:28.078Z,21.10
2019-02-20T22:03:33.393Z,23.93
2019-02-20T22:06:36.079Z,25.83
2019-02-20T22:09:57.562Z,22.80
2019-02-20T22:13:05.431Z,20.67
2019-02-20T22:16:05.199Z,20.33
2019-02-20T22:19:03.159Z,20.03
2019-02-20T22:22:19.563Z,23.37
2019-02-20T22:25:19.299Z,15.93
2019-02-20T22:28:26.743Z,18.27
2019-02-20T22:31:32.791Z,24.90
2019-02-20T22:34:46.183Z,23.80
2019-02-20T22:38:15.088Z,26.00
2019-02-20T22:40:50.662Z,45.57
2019-02-20T22:43:50.373Z,26.80
2019-02-20T22:46:51.497Z,20.30
2019-02-20T22:49:50.376Z,20.73
2019-02-20T22:52:30.085Z,25.40
2019-02-20T22:55:24.556Z,19.87
2019-02-20T22:58:17.116Z,26.10
2019-02-20T23:01:15.242Z,22.10
2019-02-20T23:03:59.901Z,18.13
2019-02-20T23:07:13.321Z,27.43
2019-02-20T23:09:54.148Z,19.87
2019-02-20T23:13:01.390Z,20.73
2019-02-20T23:15:30.531Z,26.00
2019-02-20T23:17:59.815Z,23.50
2019-02-20T23:20:29.164Z,21.80
2019-02-20T23:23:01.177Z,20.60
2019-02-20T23:25:30.341Z,24.57
2019-02-20T23:27:59.494Z,21.83
2019-02-20T23:30:28.704Z,24.43
2019-02-20T23:32:57.887Z,18.53
2019-02-20T23:35:27.233Z,23.90
2019-02-20T23:37:56.473Z,25.57
2019-02-20T23:40:27.590Z,27.93
2019-02-20T23:42:56.647Z,18.63
2019-02-20T23:45:25.886Z,33.00
2019-02-20T23:47:55.049Z,24.83
2019-02-20T23:50:24.228Z,19.27
2019-02-20T23:52:53.472Z,22.03
2019-02-20T23:55:22.665Z,23.10
2019-02-20T23:57:51.871Z,23.97
